Time,TemperatureF,DewpointF,PressureIn,WindDirection,WindDirectionDegrees,WindSpeedMPH,WindSpeedGustMPH,Humidity,HourlyPrecipIn,Conditions,Clouds,dailyrainin,SoftwareType,DateUTC
2013-10-25 00:00:00,34.4,31.2,30.23,West,264,0.0,1.0,88,0.00,,,0.00,Wunderground v.1.15,2013-10-25 04:00:00,
2013-10-25 00:05:00,34.3,31.1,30.23,West,275,0.0,1.0,88,0.00,,,0.00,Wunderground v.1.15,2013-10-25 04:05:00,
2013-10-25 00:10:00,34.2,31.0,30.23,West,276,1.0,1.0,88,0.00,,,0.00,Wunderground v.1.15,2013-10-25 04:10:00,
2013-10-25 00:20:00,33.9,31.0,30.24,WSW,252,0.0,0.0,89,0.00,,,0.00,Wunderground v.1.15,2013-10-25 04:20:00,
2013-10-25 00:25:00,33.7,30.8,30.24,WSW,252,0.0,0.0,89,0.00,,,0.00,Wunderground v.1.15,2013-10-25 04:25:00,
2013-10-25 00:35:00,33.3,30.4,30.24,WSW,258,0.0,1.0,89,0.00,,,0.00,Wunderground v.1.15,2013-10-25 04:35:00,
2013-10-25 00:45:00,33.2,30.6,30.24,WSW,250,0.0,0.0,90,0.00,,,0.00,Wunderground v.1.15,2013-10-25 04:45:00,
2013-10-25 00:50:00,33.2,30.6,30.25,West,262,1.0,1.0,90,0.00,,,0.00,Wunderground v.1.15,2013-10-25 04:50:00,
2013-10-25 01:00:00,33.1,30.5,30.25,West,269,0.0,0.0,90,0.00,,,0.00,Wunderground v.1.15,2013-10-25 05:00:00,
2013-10-25 01:10:00,33.0,30.4,30.25,West,274,0.0,1.0,90,0.00,,,0.00,Wunderground v.1.15,2013-10-25 05:10:00,
2013-10-25 01:20:00,32.9,30.6,30.25,West,262,0.0,0.0,91,0.00,,,0.00,Wunderground v.1.15,2013-10-25 05:20:00,
2013-10-25 01:30:00,32.7,30.4,30.25,West,267,0.0,0.0,91,0.00,,,0.00,Wunderground v.1.15,2013-10-25 05:30:00,
2013-10-25 01:40:00,32.4,30.1,30.25,West,264,0.0,0.0,91,0.00,,,0.00,Wunderground v.1.15,2013-10-25 05:40:00,
2013-10-25 01:45:00,32.3,30.0,30.25,WSW,257,0.0,0.0,91,0.00,,,0.00,Wunderground v.1.15,2013-10-25 05:45:00,
2013-10-25 01:55:00,32.2,30.1,30.26,West,276,0.0,1.0,92,0.00,,,0.00,Wunderground v.1.15,2013-10-25 05:55:00,
2013-10-25 02:00:00,32.2,30.1,30.26,West,280,0.0,0.0,92,0.00,,,0.00,Wunderground v.1.15,2013-10-25 06:00:00,
2013-10-25 02:10:00,32.2,30.1,30.26,West,259,0.0,1.0,92,0.00,,,0.00,Wunderground v.1.15,2013-10-25 06:10:00,
2013-10-25 02:15:00,32.2,30.1,30.26,West,259,0.0,1.0,92,0.00,,,0.00,Wunderground v.1.15,2013-10-25 06:15:00,
2013-10-25 02:25:00,32.0,29.9,30.26,WSW,249,0.0,0.0,92,0.00,,,0.00,Wunderground v.1.15,2013-10-25 06:25:00,
2013-10-25 02:35:00,31.9,29.8,30.26,West,268,0.0,1.0,92,0.00,,,0.00,Wunderground v.1.15,2013-10-25 06:35:00,
2013-10-25 02:40:00,31.8,29.7,30.27,West,268,0.0,0.0,92,0.00,,,0.00,Wunderground v.1.15,2013-10-25 06:40:00,
2013-10-25 02:50:00,31.6,29.5,30.27,West,275,0.0,0.0,92,0.00,,,0.00,Wunderground v.1.15,2013-10-25 06:50:00,
2013-10-25 02:55:00,31.5,29.4,30.27,West,275,0.0,0.0,92,0.00,,,0.00,Wunderground v.1.15,2013-10-25 06:55:00,
2013-10-25 03:00:00,31.4,29.3,30.27,West,276,0.0,0.0,92,0.00,,,0.00,Wunderground v.1.15,2013-10-25 07:00:00,
2013-10-25 03:10:00,31.5,29.7,30.27,West,273,0.0,0.0,93,0.00,,,0.00,Wunderground v.1.15,2013-10-25 07:10:00,
2013-10-25 03:20:00,31.4,29.6,30.27,WSW,255,0.0,0.0,93,0.00,,,0.00,Wunderground v.1.15,2013-10-25 07:20:00,
2013-10-25 03:25:00,31.4,29.6,30.27,West,273,0.0,1.0,93,0.00,,,0.00,Wunderground v.1.15,2013-10-25 07:25:00,
2013-10-25 03:35:00,31.3,29.2,30.28,WSW,255,0.0,0.0,92,0.00,,,0.00,Wunderground v.1.15,2013-10-25 07:35:00,
2013-10-25 03:40:00,31.2,29.4,30.28,WSW,255,0.0,0.0,93,0.00,,,0.00,Wunderground v.1.15,2013-10-25 07:40:00,
2013-10-25 03:50:00,31.0,29.2,30.28,WSW,255,0.0,0.0,93,0.00,,,0.00,Wunderground v.1.15,2013-10-25 07:50:00,
2013-10-25 03:55:00,30.9,29.1,30.28,WSW,255,0.0,0.0,93,0.00,,,0.00,Wunderground v.1.15,2013-10-25 07:55:00,
2013-10-25 04:00:00,30.8,29.0,30.28,WSW,255,0.0,0.0,93,0.00,,,0.00,Wunderground v.1.15,2013-10-25 08:00:00,
2013-10-25 04:10:00,30.6,28.8,30.28,West,262,0.0,0.0,93,0.00,,,0.00,Wunderground v.1.15,2013-10-25 08:10:00,
2013-10-25 04:20:00,30.5,28.7,30.28,West,262,0.0,0.0,93,0.00,,,0.00,Wunderground v.1.15,2013-10-25 08:20:00,
2013-10-25 04:25:00,30.5,28.7,30.28,WSW,253,0.0,0.0,93,0.00,,,0.00,Wunderground v.1.15,2013-10-25 08:25:00,
2013-10-25 04:30:00,30.4,28.6,30.28,WSW,253,0.0,0.0,93,0.00,,,0.00,Wunderground v.1.15,2013-10-25 08:30:00,
2013-10-25 04:40:00,30.4,28.6,30.29,West,274,0.0,2.0,93,0.00,,,0.00,Wunderground v.1.15,2013-10-25 08:40:00,
2013-10-25 04:50:00,30.5,28.7,30.29,WSW,257,0.0,0.0,93,0.00,,,0.00,Wunderground v.1.15,2013-10-25 08:50:00,
2013-10-25 04:55:00,30.4,28.6,30.29,West,260,0.0,0.0,93,0.00,,,0.00,Wunderground v.1.15,2013-10-25 08:55:00,
2013-10-25 05:00:00,30.4,28.6,30.29,WSW,255,0.0,0.0,93,0.00,,,0.00,Wunderground v.1.15,2013-10-25 09:00:00,
2013-10-25 05:10:00,30.4,28.6,30.29,WSW,245,0.0,0.0,93,0.00,,,0.00,Wunderground v.1.15,2013-10-25 09:10:00,
2013-10-25 05:15:00,30.4,28.9,30.30,WSW,255,0.0,0.0,94,0.00,,,0.00,Wunderground v.1.15,2013-10-25 09:15:00,
2013-10-25 05:25:00,30.4,28.9,30.30,WSW,251,0.0,0.0,94,0.00,,,0.00,Wunderground v.1.15,2013-10-25 09:25:00,
2013-10-25 05:35:00,30.4,28.9,30.30,WSW,252,0.0,0.0,94,0.00,,,0.00,Wunderground v.1.15,2013-10-25 09:35:00,
2013-10-25 05:40:00,30.3,28.8,30.30,West,259,0.0,0.0,94,0.00,,,0.00,Wunderground v.1.15,2013-10-25 09:40:00,
2013-10-25 05:50:00,30.3,28.8,30.31,West,265,0.0,0.0,94,0.00,,,0.00,Wunderground v.1.15,2013-10-25 09:50:00,
2013-10-25 06:00:00,30.2,28.7,30.31,West,279,0.0,0.0,94,0.00,,,0.00,Wunderground v.1.15,2013-10-25 10:00:00,
2013-10-25 06:10:00,30.2,28.7,30.31,West,260,0.0,0.0,94,0.00,,,0.00,Wunderground v.1.15,2013-10-25 10:10:00,
2013-10-25 06:20:00,30.2,28.7,30.32,West,272,0.0,0.0,94,0.00,,,0.00,Wunderground v.1.15,2013-10-25 10:20:00,
2013-10-25 06:25:00,30.2,28.7,30.32,West,269,0.0,0.0,94,0.00,,,0.00,Wunderground v.1.15,2013-10-25 10:25:00,
2013-10-25 06:35:00,30.2,28.7,30.33,West,266,0.0,0.0,94,0.00,,,0.00,Wunderground v.1.15,2013-10-25 10:35:00,
2013-10-25 06:45:00,30.2,28.7,30.33,West,263,0.0,0.0,94,0.00,,,0.00,Wunderground v.1.15,2013-10-25 10:45:00,
2013-10-25 06:50:00,30.2,28.7,30.33,West,264,0.0,0.0,94,0.00,,,0.00,Wunderground v.1.15,2013-10-25 10:50:00,
2013-10-25 07:00:00,30.3,28.8,30.33,West,266,0.0,0.0,94,0.00,,,0.00,Wunderground v.1.15,2013-10-25 11:00:00,
2013-10-25 07:05:00,30.4,28.9,30.33,West,269,0.0,0.0,94,0.00,,,0.00,Wunderground v.1.15,2013-10-25 11:05:00,
2013-10-25 07:15:00,30.4,28.9,30.33,West,270,0.0,0.0,94,0.00,,,0.00,Wunderground v.1.15,2013-10-25 11:15:00,
2013-10-25 07:20:00,30.4,28.9,30.33,West,271,0.0,0.0,94,0.00,,,0.00,Wunderground v.1.15,2013-10-25 11:20:00,
2013-10-25 07:30:00,30.2,28.7,30.34,West,270,0.0,1.0,94,0.00,,,0.00,Wunderground v.1.15,2013-10-25 11:30:00,
2013-10-25 07:35:00,30.1,28.6,30.34,WSW,250,0.0,1.0,94,0.00,,,0.00,Wunderground v.1.15,2013-10-25 11:35:00,
2013-10-25 07:45:00,30.0,28.5,30.34,WSW,249,0.0,0.0,94,0.00,,,0.00,Wunderground v.1.15,2013-10-25 11:45:00,
2013-10-25 07:50:00,29.8,28.3,30.34,WSW,250,0.0,0.0,94,0.00,,,0.00,Wunderground v.1.15,2013-10-25 11:50:00,
2013-10-25 08:00:00,29.8,28.3,30.35,WSW,247,0.0,0.0,94,0.00,,,0.00,Wunderground v.1.15,2013-10-25 12:00:00,
2013-10-25 08:05:00,29.9,28.4,30.35,West,273,0.0,0.0,94,0.00,,,0.00,Wunderground v.1.15,2013-10-25 12:05:00,
2013-10-25 08:15:00,30.0,28.5,30.35,WSW,245,0.0,0.0,94,0.00,,,0.00,Wunderground v.1.15,2013-10-25 12:15:00,
2013-10-25 08:20:00,30.0,28.5,30.35,WSW,245,0.0,0.0,94,0.00,,,0.00,Wunderground v.1.15,2013-10-25 12:20:00,
2013-10-25 08:30:00,30.2,28.9,30.35,WSW,258,0.0,0.0,95,0.00,,,0.00,Wunderground v.1.15,2013-10-25 12:30:00,
2013-10-25 08:40:00,30.5,29.2,30.36,West,277,0.0,0.0,95,0.00,,,0.00,Wunderground v.1.15,2013-10-25 12:40:00,
2013-10-25 08:50:00,31.1,29.8,30.36,SW,231,0.0,1.0,95,0.00,,,0.00,Wunderground v.1.15,2013-10-25 12:50:00,
2013-10-25 09:00:00,32.0,30.7,30.37,West,272,0.0,1.0,95,0.00,,,0.00,Wunderground v.1.15,2013-10-25 13:00:00,
2013-10-25 09:05:00,32.5,31.2,30.37,West,276,0.0,1.0,95,0.00,,,0.00,Wunderground v.1.15,2013-10-25 13:05:00,
2013-10-25 09:15:00,33.2,31.7,30.38,West,266,1.0,1.0,94,0.00,,,0.00,Wunderground v.1.15,2013-10-25 13:15:00,
2013-10-25 09:20:00,33.5,32.0,30.38,West,262,0.0,1.0,94,0.00,,,0.00,Wunderground v.1.15,2013-10-25 13:20:00,
2013-10-25 09:30:00,33.9,32.1,30.38,WSW,241,1.0,1.0,93,0.00,,,0.00,Wunderground v.1.15,2013-10-25 13:30:00,
2013-10-25 09:35:00,34.1,32.3,30.38,West,261,0.0,1.0,93,0.00,,,0.00,Wunderground v.1.15,2013-10-25 13:35:00,
2013-10-25 09:45:00,34.5,32.7,30.39,WSW,249,0.0,1.0,93,0.00,,,0.00,Wunderground v.1.15,2013-10-25 13:45:00,
2013-10-25 09:50:00,34.7,32.6,30.39,WSW,249,0.0,1.0,92,0.00,,,0.00,Wunderground v.1.15,2013-10-25 13:50:00,
2013-10-25 10:00:00,35.1,33.0,30.39,WSW,247,0.0,1.0,92,0.00,,,0.00,Wunderground v.1.15,2013-10-25 14:00:00,
2013-10-25 10:10:00,35.8,33.7,30.39,West,269,0.0,1.0,92,0.00,,,0.00,Wunderground v.1.15,2013-10-25 14:10:00,
2013-10-25 10:20:00,36.2,33.8,30.38,West,263,1.0,1.0,91,0.00,,,0.00,Wunderground v.1.15,2013-10-25 14:20:00,
2013-10-25 10:30:00,37.1,34.4,30.38,WSW,248,1.0,2.0,90,0.00,,,0.00,Wunderground v.1.15,2013-10-25 14:30:00,
2013-10-25 10:35:00,37.7,35.0,30.38,SW,236,1.0,2.0,90,0.00,,,0.00,Wunderground v.1.15,2013-10-25 14:35:00,
2013-10-25 10:45:00,39.0,35.7,30.39,West,267,1.0,1.0,88,0.00,,,0.00,Wunderground v.1.15,2013-10-25 14:45:00,
2013-10-25 10:50:00,39.5,35.4,30.39,West,259,1.0,1.0,85,0.00,,,0.00,Wunderground v.1.15,2013-10-25 14:50:00,
2013-10-25 11:00:00,40.5,36.3,30.38,West,266,1.0,1.0,85,0.00,,,0.00,Wunderground v.1.15,2013-10-25 15:00:00,
2013-10-25 11:10:00,41.4,36.0,30.39,WSW,255,2.0,2.0,81,0.00,,,0.00,Wunderground v.1.15,2013-10-25 15:10:00,
2013-10-25 11:20:00,42.2,36.2,30.38,WSW,257,2.0,2.0,79,0.00,,,0.00,Wunderground v.1.15,2013-10-25 15:20:00,
2013-10-25 11:30:00,43.5,36.4,30.38,West,261,2.0,2.0,76,0.00,,,0.00,Wunderground v.1.15,2013-10-25 15:30:00,
2013-10-25 11:35:00,43.7,36.6,30.38,West,280,2.0,2.0,76,0.00,,,0.00,Wunderground v.1.15,2013-10-25 15:35:00,
2013-10-25 11:45:00,44.7,36.6,30.38,WNW,291,2.0,6.0,73,0.00,,,0.00,Wunderground v.1.15,2013-10-25 15:45:00,
2013-10-25 11:55:00,45.2,36.7,30.38,West,279,2.0,3.0,72,0.00,,,0.00,Wunderground v.1.15,2013-10-25 15:55:00,
2013-10-25 12:05:00,45.6,35.3,30.38,West,269,2.0,3.0,67,0.00,,,0.00,Wunderground v.1.15,2013-10-25 16:05:00,
2013-10-25 12:10:00,46.1,35.7,30.38,West,268,2.0,2.0,67,0.00,,,0.00,Wunderground v.1.15,2013-10-25 16:10:00,
2013-10-25 12:20:00,46.4,34.9,30.37,SSE,151,2.0,2.0,64,0.00,,,0.00,Wunderground v.1.15,2013-10-25 16:20:00,
2013-10-25 12:25:00,47.1,35.1,30.37,ESE,111,1.0,2.0,63,0.00,,,0.00,Wunderground v.1.15,2013-10-25 16:25:00,
2013-10-25 12:35:00,48.2,33.7,30.37,West,259,1.0,2.0,57,0.00,,,0.00,Wunderground v.1.15,2013-10-25 16:35:00,
2013-10-25 12:40:00,48.5,33.9,30.37,West,265,2.0,2.0,57,0.00,,,0.00,Wunderground v.1.15,2013-10-25 16:40:00,
2013-10-25 12:50:00,47.8,31.9,30.36,West,270,2.0,2.0,54,0.00,,,0.00,Wunderground v.1.15,2013-10-25 16:50:00,
2013-10-25 12:55:00,47.0,32.1,30.36,West,274,2.0,2.0,56,0.00,,,0.00,Wunderground v.1.15,2013-10-25 16:55:00,
2013-10-25 13:00:00,46.4,30.6,30.36,West,271,2.0,2.0,54,0.00,,,0.00,Wunderground v.1.15,2013-10-25 17:00:00,
2013-10-25 13:10:00,45.8,31.9,30.36,WSW,249,1.0,4.0,58,0.00,,,0.00,Wunderground v.1.15,2013-10-25 17:10:00,
2013-10-25 13:20:00,45.8,31.9,30.35,WSW,255,1.0,2.0,58,0.00,,,0.00,Wunderground v.1.15,2013-10-25 17:20:00,
2013-10-25 13:25:00,45.8,31.0,30.35,West,276,1.0,2.0,56,0.00,,,0.00,Wunderground v.1.15,2013-10-25 17:25:00,
2013-10-25 13:35:00,45.6,30.3,30.35,WNW,283,3.0,3.0,55,0.00,,,0.00,Wunderground v.1.15,2013-10-25 17:35:00,
2013-10-25 13:40:00,46.4,31.5,30.35,West,268,2.0,2.0,56,0.00,,,0.00,Wunderground v.1.15,2013-10-25 17:40:00,
2013-10-25 13:50:00,47.7,30.4,30.35,WNW,283,2.0,2.0,51,0.00,,,0.00,Wunderground v.1.15,2013-10-25 17:50:00,
2013-10-25 13:55:00,47.1,30.8,30.35,West,274,2.0,2.0,53,0.00,,,0.00,Wunderground v.1.15,2013-10-25 17:55:00,
2013-10-25 14:00:00,46.7,30.9,30.35,West,267,2.0,2.0,54,0.00,,,0.00,Wunderground v.1.15,2013-10-25 18:00:00,
2013-10-25 14:10:00,46.5,30.7,30.34,WSW,256,2.0,2.0,54,0.00,,,0.00,Wunderground v.1.15,2013-10-25 18:10:00,
2013-10-25 14:20:00,46.2,30.9,30.34,WSW,257,2.0,2.0,55,0.00,,,0.00,Wunderground v.1.15,2013-10-25 18:20:00,
2013-10-25 14:25:00,45.9,31.5,30.34,WSW,257,2.0,2.0,57,0.00,,,0.00,Wunderground v.1.15,2013-10-25 18:25:00,
2013-10-25 14:35:00,45.7,31.3,30.34,West,265,2.0,3.0,57,0.00,,,0.00,Wunderground v.1.15,2013-10-25 18:35:00,
2013-10-25 14:40:00,45.9,31.5,30.34,SW,222,2.0,4.0,57,0.00,,,0.00,Wunderground v.1.15,2013-10-25 18:40:00,
2013-10-25 14:50:00,45.9,31.5,30.33,West,274,2.0,2.0,57,0.00,,,0.00,Wunderground v.1.15,2013-10-25 18:50:00,
2013-10-25 15:00:00,46.4,32.0,30.33,WSW,248,1.0,1.0,57,0.00,,,0.00,Wunderground v.1.15,2013-10-25 19:00:00,
2013-10-25 15:10:00,46.9,31.1,30.32,West,263,1.0,2.0,54,0.00,,,0.00,Wunderground v.1.15,2013-10-25 19:10:00,
2013-10-25 15:20:00,46.9,31.6,30.32,SW,214,1.0,1.0,55,0.00,,,0.00,Wunderground v.1.15,2013-10-25 19:20:00,
2013-10-25 15:25:00,46.6,30.4,30.32,WSW,258,2.0,2.0,53,0.00,,,0.00,Wunderground v.1.15,2013-10-25 19:25:00,
2013-10-25 15:35:00,46.3,31.4,30.32,West,276,1.0,2.0,56,0.00,,,0.00,Wunderground v.1.15,2013-10-25 19:35:00,
2013-10-25 15:40:00,46.4,31.5,30.32,West,259,1.0,1.0,56,0.00,,,0.00,Wunderground v.1.15,2013-10-25 19:40:00,
2013-10-25 15:50:00,46.3,31.4,30.32,NNE,24,1.0,1.0,56,0.00,,,0.00,Wunderground v.1.15,2013-10-25 19:50:00,
2013-10-25 15:55:00,46.3,31.4,30.32,WSW,245,1.0,3.0,56,0.00,,,0.00,Wunderground v.1.15,2013-10-25 19:55:00,
2013-10-25 16:00:00,46.2,31.4,30.32,WNW,285,1.0,3.0,56,0.00,,,0.00,Wunderground v.1.15,2013-10-25 20:00:00,
2013-10-25 16:10:00,46.0,31.2,30.32,West,278,1.0,3.0,56,0.00,,,0.00,Wunderground v.1.15,2013-10-25 20:10:00,
2013-10-25 16:25:00,45.9,31.5,30.32,SW,229,2.0,2.0,57,0.00,,,0.00,Wunderground v.1.15,2013-10-25 20:25:00,
2013-10-25 16:35:00,46.0,32.0,30.31,WSW,248,1.0,3.0,58,0.00,,,0.00,Wunderground v.1.15,2013-10-25 20:35:00,
2013-10-25 16:45:00,46.0,32.0,30.31,SW,223,1.0,2.0,58,0.00,,,0.00,Wunderground v.1.15,2013-10-25 20:45:00,
2013-10-25 16:50:00,45.9,31.5,30.31,WSW,256,2.0,2.0,57,0.00,,,0.00,Wunderground v.1.15,2013-10-25 20:50:00,
2013-10-25 17:00:00,45.8,31.9,30.31,WSW,248,2.0,2.0,58,0.00,,,0.00,Wunderground v.1.15,2013-10-25 21:00:00,
2013-10-25 17:05:00,45.8,31.0,30.31,WSW,258,1.0,2.0,56,0.00,,,0.00,Wunderground v.1.15,2013-10-25 21:05:00,
2013-10-25 17:15:00,45.7,30.4,30.30,WSW,250,1.0,2.0,55,0.00,,,0.00,Wunderground v.1.15,2013-10-25 21:15:00,
2013-10-25 17:20:00,45.7,30.9,30.31,West,276,1.0,2.0,56,0.00,,,0.00,Wunderground v.1.15,2013-10-25 21:20:00,
2013-10-25 17:30:00,45.6,30.8,30.30,WSW,240,1.0,1.0,56,0.00,,,0.00,Wunderground v.1.15,2013-10-25 21:30:00,
2013-10-25 17:35:00,45.5,31.1,30.30,SW,233,1.0,1.0,57,0.00,,,0.00,Wunderground v.1.15,2013-10-25 21:35:00,
2013-10-25 17:45:00,45.3,29.6,30.30,SW,223,1.0,1.0,54,0.00,,,0.00,Wunderground v.1.15,2013-10-25 21:45:00,
2013-10-25 17:50:00,45.3,29.2,30.29,WSW,257,1.0,1.0,53,0.00,,,0.00,Wunderground v.1.15,2013-10-25 21:50:00,
2013-10-25 18:00:00,45.2,29.5,30.29,WSW,248,1.0,1.0,54,0.00,,,0.00,Wunderground v.1.15,2013-10-25 22:00:00,
2013-10-25 18:10:00,45.0,29.3,30.29,SW,231,1.0,1.0,54,0.00,,,0.00,Wunderground v.1.15,2013-10-25 22:10:00,
2013-10-25 18:20:00,44.8,30.0,30.28,SW,228,0.0,0.0,56,0.00,,,0.00,Wunderground v.1.15,2013-10-25 22:20:00,
2013-10-25 18:30:00,44.3,29.6,30.28,SSE,162,0.0,1.0,56,0.00,,,0.00,Wunderground v.1.15,2013-10-25 22:30:00,
2013-10-25 18:35:00,44.1,29.4,30.28,SW,225,1.0,1.0,56,0.00,,,0.00,Wunderground v.1.15,2013-10-25 22:35:00,
2013-10-25 18:45:00,43.6,29.4,30.28,WSW,251,1.0,1.0,57,0.00,,,0.00,Wunderground v.1.15,2013-10-25 22:45:00,
2013-10-25 18:50:00,43.3,29.5,30.28,WSW,250,0.0,0.0,58,0.00,,,0.00,Wunderground v.1.15,2013-10-25 22:50:00,
2013-10-25 19:00:00,42.7,29.8,30.28,WSW,245,0.0,0.0,60,0.00,,,0.00,Wunderground v.1.15,2013-10-25 23:00:00,
2013-10-25 19:05:00,42.3,29.4,30.28,WSW,245,0.0,0.0,60,0.00,,,0.00,Wunderground v.1.15,2013-10-25 23:05:00,
2013-10-25 19:15:00,41.8,29.7,30.28,WSW,245,0.0,1.0,62,0.00,,,0.00,Wunderground v.1.15,2013-10-25 23:15:00,
2013-10-25 19:20:00,41.4,29.7,30.28,WSW,245,0.0,0.0,63,0.00,,,0.00,Wunderground v.1.15,2013-10-25 23:20:00,
2013-10-25 19:30:00,40.8,29.9,30.27,WSW,245,0.0,0.0,65,0.00,,,0.00,Wunderground v.1.15,2013-10-25 23:30:00,
2013-10-25 19:35:00,40.6,29.7,30.27,WSW,245,0.0,0.0,65,0.00,,,0.00,Wunderground v.1.15,2013-10-25 23:35:00,
2013-10-25 19:45:00,40.1,30.0,30.27,SSW,207,0.0,1.0,67,0.00,,,0.00,Wunderground v.1.15,2013-10-25 23:45:00,
2013-10-25 19:55:00,39.8,30.1,30.27,SW,231,0.0,0.0,68,0.00,,,0.00,Wunderground v.1.15,2013-10-25 23:55:00,
2013-10-25 20:00:00,39.7,30.0,30.27,SW,231,0.0,0.0,68,0.00,,,0.00,Wunderground v.1.15,2013-10-26 00:00:00,
2013-10-25 20:05:00,39.6,29.9,30.27,SW,231,0.0,0.0,68,0.00,,,0.00,Wunderground v.1.15,2013-10-26 00:05:00,
2013-10-25 20:15:00,39.6,29.9,30.26,SW,226,0.0,0.0,68,0.00,,,0.00,Wunderground v.1.15,2013-10-26 00:15:00,
2013-10-25 20:20:00,39.6,29.5,30.26,SW,216,0.0,0.0,67,0.00,,,0.00,Wunderground v.1.15,2013-10-26 00:20:00,
2013-10-25 20:30:00,39.3,29.6,30.26,SW,232,0.0,0.0,68,0.00,,,0.00,Wunderground v.1.15,2013-10-26 00:30:00,
2013-10-25 20:35:00,39.3,29.6,30.26,SSW,210,0.0,0.0,68,0.00,,,0.00,Wunderground v.1.15,2013-10-26 00:35:00,
2013-10-25 20:45:00,39.0,29.3,30.25,SW,233,0.0,0.0,68,0.00,,,0.00,Wunderground v.1.15,2013-10-26 00:45:00,
2013-10-25 20:55:00,38.9,29.2,30.25,SW,229,0.0,0.0,68,0.00,,,0.00,Wunderground v.1.15,2013-10-26 00:55:00,
2013-10-25 21:00:00,39.0,29.3,30.24,SW,230,0.0,0.0,68,0.00,,,0.00,Wunderground v.1.15,2013-10-26 01:00:00,
2013-10-25 21:10:00,39.0,29.0,30.24,SW,222,1.0,1.0,67,0.00,,,0.00,Wunderground v.1.15,2013-10-26 01:10:00,
2013-10-25 21:15:00,39.0,29.0,30.24,SW,215,1.0,1.0,67,0.00,,,0.00,Wunderground v.1.15,2013-10-26 01:15:00,
2013-10-25 21:25:00,39.0,29.0,30.24,SW,231,1.0,1.0,67,0.00,,,0.00,Wunderground v.1.15,2013-10-26 01:25:00,
2013-10-25 21:30:00,38.9,28.9,30.24,SW,217,1.0,2.0,67,0.00,,,0.00,Wunderground v.1.15,2013-10-26 01:30:00,
2013-10-25 21:40:00,38.7,28.7,30.23,SW,223,1.0,1.0,67,0.00,,,0.00,Wunderground v.1.15,2013-10-26 01:40:00,
2013-10-25 21:45:00,38.7,28.7,30.23,SW,218,1.0,2.0,67,0.00,,,0.00,Wunderground v.1.15,2013-10-26 01:45:00,
2013-10-25 21:55:00,38.7,28.3,30.23,SW,222,1.0,1.0,66,0.00,,,0.00,Wunderground v.1.15,2013-10-26 01:55:00,
2013-10-25 22:00:00,38.6,28.2,30.23,SW,231,1.0,1.0,66,0.00,,,0.00,Wunderground v.1.15,2013-10-26 02:00:00,
2013-10-25 22:10:00,38.7,28.3,30.23,SW,223,1.0,2.0,66,0.00,,,0.00,Wunderground v.1.15,2013-10-26 02:10:00,
2013-10-25 22:15:00,38.7,28.3,30.22,WSW,245,1.0,2.0,66,0.00,,,0.00,Wunderground v.1.15,2013-10-26 02:15:00,
2013-10-25 22:25:00,38.8,28.0,30.23,SW,232,1.0,1.0,65,0.00,,,0.00,Wunderground v.1.15,2013-10-26 02:25:00,
2013-10-25 22:30:00,38.7,28.3,30.23,SSW,207,1.0,1.0,66,0.00,,,0.00,Wunderground v.1.15,2013-10-26 02:30:00,
2013-10-25 22:40:00,38.8,28.0,30.22,SW,224,1.0,1.0,65,0.00,,,0.00,Wunderground v.1.15,2013-10-26 02:40:00,
2013-10-25 22:50:00,38.6,28.2,30.22,SW,222,1.0,1.0,66,0.00,,,0.00,Wunderground v.1.15,2013-10-26 02:50:00,
2013-10-25 22:55:00,38.5,28.1,30.22,SW,226,1.0,1.0,66,0.00,,,0.00,Wunderground v.1.15,2013-10-26 02:55:00,
2013-10-25 23:00:00,38.6,28.2,30.22,West,268,1.0,3.0,66,0.00,,,0.00,Wunderground v.1.15,2013-10-26 03:00:00,
2013-10-25 23:10:00,38.5,28.1,30.21,WSW,246,1.0,2.0,66,0.00,,,0.00,Wunderground v.1.15,2013-10-26 03:10:00,
2013-10-25 23:20:00,38.5,28.1,30.20,SW,219,1.0,1.0,66,0.00,,,0.00,Wunderground v.1.15,2013-10-26 03:20:00,
2013-10-25 23:30:00,38.5,28.1,30.20,NE,40,1.0,1.0,66,0.00,,,0.00,Wunderground v.1.15,2013-10-26 03:30:00,
2013-10-25 23:40:00,38.6,28.2,30.20,SW,232,1.0,2.0,66,0.00,,,0.00,Wunderground v.1.15,2013-10-26 03:40:00,
2013-10-25 23:50:00,38.8,28.4,30.19,WSW,243,2.0,2.0,66,0.00,,,0.00,Wunderground v.1.15,2013-10-26 03:50:00,
2013-10-25 23:55:00,38.9,28.5,30.19,SSW,205,1.0,2.0,66,0.00,,,0.00,Wunderground v.1.15,2013-10-26 03:55:00,